createdAt,value
2022-08-19T00:01:38.208Z,101409.97
2022-08-19T00:04:08.072Z,101406.78
2022-08-19T00:06:36.544Z,101405.19
2022-08-19T00:09:06.250Z,101408.38
2022-08-19T00:11:33.265Z,101410.75
2022-08-19T00:14:00.097Z,101401.19
2022-08-19T00:16:27.607Z,101389.59
2022-08-19T00:18:56.466Z,101396.78
2022-08-19T00:21:25.790Z,101394.00
2022-08-19T00:23:53.384Z,101396.38
2022-08-19T00:26:21.217Z,101399.53
2022-08-19T00:28:48.125Z,101395.56
2022-08-19T00:31:15.042Z,101389.59
2022-08-19T00:33:41.812Z,101390.38
2022-08-19T00:36:10.453Z,101383.56
2022-08-19T00:38:39.369Z,101385.16
2022-08-19T00:41:07.171Z,101378.34
2022-08-19T00:43:34.026Z,101371.16
2022-08-19T00:46:02.527Z,101367.56
2022-08-19T00:48:29.603Z,101364.75
2022-08-19T00:50:56.723Z,101370.75
2022-08-19T00:53:27.485Z,101367.94
2022-08-19T00:55:57.401Z,101368.75
2022-08-19T00:58:29.926Z,101352.44
2022-08-19T01:00:57.117Z,101360.38
2022-08-19T01:03:24.373Z,101361.16
2022-08-19T01:05:54.375Z,101354.44
2022-08-19T01:08:21.907Z,101366.75
2022-08-19T01:10:57.209Z,101371.94
2022-08-19T01:13:27.656Z,101369.13
2022-08-19T01:16:04.856Z,101367.13
2022-08-19T01:18:33.808Z,101365.50
2022-08-19T01:21:12.053Z,101359.94
2022-08-19T01:23:45.185Z,101358.34
2022-08-19T01:26:19.330Z,101364.69
2022-08-19T01:28:48.357Z,101356.31
2022-08-19T01:31:26.939Z,101355.47
2022-08-19T01:33:57.107Z,101359.88
2022-08-19T01:36:39.823Z,101353.88
2022-08-19T01:39:10.580Z,101366.09
2022-08-19T01:41:37.651Z,101366.09
2022-08-19T01:44:17.316Z,101359.31
2022-08-19T01:46:48.451Z,101363.63
2022-08-19T01:49:16.760Z,101359.69
2022-08-19T01:51:44.172Z,101361.66
2022-08-19T01:54:13.962Z,101355.69
2022-08-19T01:56:55.878Z,101356.81
2022-08-19T01:59:24.697Z,101360.78
2022-08-19T02:01:51.534Z,101362.69
2022-08-19T02:04:18.550Z,101364.69
2022-08-19T02:06:45.523Z,101374.25
2022-08-19T02:09:12.754Z,101367.06
2022-08-19T02:11:40.235Z,101373.00
2022-08-19T02:14:08.847Z,101366.25
2022-08-19T02:16:37.830Z,101365.41
2022-08-19T02:19:05.764Z,101361.44
2022-08-19T02:21:33.489Z,101365.81
2022-08-19T02:24:00.933Z,101356.25
2022-08-19T02:26:28.019Z,101355.44
2022-08-19T02:28:55.895Z,101352.66
2022-08-19T02:31:25.855Z,101352.22
2022-08-19T02:33:56.594Z,101351.78
2022-08-19T02:36:26.127Z,101352.50
2022-08-19T02:38:54.807Z,101357.25
2022-08-19T02:41:28.728Z,101366.03
2022-08-19T02:44:26.824Z,101362.44
2022-08-19T02:46:51.710Z,101372.81
2022-08-19T02:49:19.993Z,101373.66
2022-08-19T02:51:47.296Z,101373.31
2022-08-19T02:54:15.514Z,101367.34
2022-08-19T02:56:44.097Z,101375.69
2022-08-19T02:59:13.173Z,101376.50
2022-08-19T03:01:43.121Z,101376.88
2022-08-19T03:04:14.134Z,101369.34
2022-08-19T03:06:44.119Z,101365.03
2022-08-19T03:09:12.064Z,101370.63
2022-08-19T03:11:39.836Z,101357.16
2022-08-19T03:14:09.531Z,101358.41
2022-08-19T03:16:43.256Z,101359.97
2022-08-19T03:19:10.370Z,101358.00
2022-08-19T03:21:37.519Z,101350.47
2022-08-19T03:24:08.288Z,101340.94
2022-08-19T03:26:39.152Z,101341.75
2022-08-19T03:29:06.784Z,101327.41
2022-08-19T03:31:43.455Z,101332.59
2022-08-19T03:34:23.783Z,101345.31
2022-08-19T03:36:50.753Z,101343.34
2022-08-19T03:39:17.659Z,101348.91
2022-08-19T03:41:48.425Z,101349.69
2022-08-19T03:44:19.391Z,101354.81
2022-08-19T03:46:49.196Z,101348.84
2022-08-19T03:49:18.367Z,101351.59
2022-08-19T03:51:46.976Z,101350.78
2022-08-19T03:54:15.554Z,101350.34
2022-08-19T03:56:44.938Z,101353.91
2022-08-19T03:59:16.432Z,101357.09
2022-08-19T04:01:44.151Z,101351.88
2022-08-19T04:04:11.590Z,101358.66
2022-08-19T04:06:40.406Z,101343.97
2022-08-19T04:09:10.628Z,101357.91
2022-08-19T04:11:49.264Z,101349.56
2022-08-19T04:14:19.433Z,101348.41
2022-08-19T04:16:48.262Z,101348.03
2022-08-19T04:19:16.879Z,101344.13
2022-08-19T04:21:46.293Z,101345.28
2022-08-19T04:24:14.828Z,101345.72
2022-08-19T04:26:42.828Z,101339.34
2022-08-19T04:29:13.270Z,101342.13
2022-08-19T04:31:42.023Z,101339.78
2022-08-19T04:34:12.021Z,101341.81
2022-08-19T04:36:42.208Z,101337.03
2022-08-19T04:39:16.926Z,101339.88
2022-08-19T04:42:03.671Z,101341.13
2022-08-19T04:44:36.313Z,101335.19
2022-08-19T04:47:11.842Z,101334.38
2022-08-19T04:49:38.709Z,101327.63
2022-08-19T04:52:05.654Z,101332.81
2022-08-19T04:54:37.353Z,101325.28
2022-08-19T04:57:10.939Z,101336.44
2022-08-19T04:59:39.360Z,101336.47
2022-08-19T05:02:09.381Z,101334.06
2022-08-19T05:04:39.915Z,101327.31
2022-08-19T05:07:08.645Z,101330.53
2022-08-19T05:09:58.509Z,101324.59
2022-08-19T05:12:22.715Z,101326.59
2022-08-19T05:14:57.901Z,101329.81
2022-08-19T05:17:28.007Z,101332.22
2022-08-19T05:20:15.603Z,101331.06
2022-08-19T05:22:44.822Z,101332.25
2022-08-19T05:25:16.777Z,101333.06
2022-08-19T05:27:44.234Z,101331.13
2022-08-19T05:30:12.448Z,101332.72
2022-08-19T05:32:40.536Z,101337.53
2022-08-19T05:35:08.058Z,101339.16
2022-08-19T05:37:35.292Z,101334.38
2022-08-19T05:40:02.648Z,101347.19
2022-08-19T05:42:29.584Z,101344.81
2022-08-19T05:44:57.126Z,101329.69
2022-08-19T05:47:24.119Z,101332.09
2022-08-19T05:49:51.972Z,101330.53
2022-08-19T05:52:25.418Z,101328.94
2022-08-19T05:54:55.985Z,101328.16
2022-08-19T05:57:24.605Z,101331.72
2022-08-19T05:59:53.299Z,101336.13
2022-08-19T06:02:27.551Z,101332.13
2022-08-19T06:04:54.462Z,101330.53
2022-08-19T06:07:21.375Z,101322.53
2022-08-19T06:09:59.096Z,101322.94
2022-08-19T06:12:35.056Z,101318.91
2022-08-19T06:15:06.284Z,101320.53
2022-08-19T06:17:33.146Z,101315.31
2022-08-19T06:20:00.210Z,101313.28
2022-08-19T06:22:28.070Z,101312.84
2022-08-19T06:24:56.301Z,101318.44
2022-08-19T06:27:23.531Z,101316.44
2022-08-19T06:29:50.664Z,101327.97
2022-08-19T06:32:19.815Z,101329.53
2022-08-19T06:34:47.253Z,101334.31
2022-08-19T06:37:14.941Z,101331.09
2022-08-19T06:39:44.250Z,101336.25
2022-08-19T06:42:14.330Z,101334.22
2022-08-19T06:44:48.322Z,101333.41
2022-08-19T06:47:23.396Z,101336.19
2022-08-19T06:49:54.854Z,101336.91
2022-08-19T06:52:27.710Z,101336.88
2022-08-19T06:54:57.198Z,101336.78
2022-08-19T06:57:27.461Z,101336.75
2022-08-19T06:59:54.410Z,101331.94
2022-08-19T07:02:21.790Z,101329.03
2022-08-19T07:04:52.739Z,101326.19
2022-08-19T07:07:21.799Z,101322.94
2022-08-19T07:09:58.606Z,101313.28
2022-08-19T07:12:30.587Z,101306.38
2022-08-19T07:14:58.863Z,101310.75
2022-08-19T07:17:26.367Z,101312.66
2022-08-19T07:19:54.526Z,101322.13
2022-08-19T07:22:24.400Z,101319.25
2022-08-19T07:24:53.606Z,101332.31
2022-08-19T07:27:24.794Z,101323.34
2022-08-19T07:29:55.761Z,101328.09
2022-08-19T07:32:23.754Z,101332.47
2022-08-19T07:34:50.828Z,101339.53
2022-08-19T07:37:18.011Z,101341.47
2022-08-19T07:39:45.056Z,101336.50
2022-08-19T07:42:13.359Z,101335.44
2022-08-19T07:44:41.533Z,101334.50
2022-08-19T07:47:08.444Z,101333.50
2022-08-19T07:49:55.514Z,101343.00
2022-08-19T07:52:23.418Z,101342.91
2022-08-19T07:54:50.848Z,101340.81
2022-08-19T07:57:19.508Z,101341.53
2022-08-19T07:59:46.744Z,101348.19
2022-08-19T08:02:13.990Z,101345.13
2022-08-19T08:04:59.542Z,101351.75
2022-08-19T08:07:46.173Z,101354.47
2022-08-19T08:10:21.164Z,101355.44
2022-08-19T08:12:58.359Z,101360.13
2022-08-19T08:15:41.365Z,101358.03
2022-08-19T08:18:09.756Z,101354.22
2022-08-19T08:20:36.905Z,101351.56
2022-08-19T08:23:22.771Z,101359.56
2022-08-19T08:25:50.640Z,101364.72
2022-08-19T08:28:18.671Z,101372.41
2022-08-19T08:30:49.139Z,101368.59
2022-08-19T08:33:33.036Z,101372.47
2022-08-19T08:36:09.714Z,101380.44
2022-08-19T08:38:40.139Z,101380.56
2022-08-19T08:41:20.508Z,101394.13
2022-08-19T08:43:49.972Z,101388.84
2022-08-19T08:46:30.961Z,101391.66
2022-08-19T08:49:12.393Z,101392.03
2022-08-19T08:51:59.599Z,101398.31
2022-08-19T08:54:32.052Z,101392.09
2022-08-19T08:57:03.644Z,101396.69
2022-08-19T08:59:38.394Z,101406.81
2022-08-19T09:02:05.729Z,101404.81
2022-08-19T09:04:32.746Z,101407.28
2022-08-19T09:07:35.247Z,101408.41
2022-08-19T09:10:21.139Z,101413.63
2022-08-19T09:12:58.821Z,101400.66
2022-08-19T09:15:41.756Z,101411.63
2022-08-19T09:18:09.887Z,101403.97
2022-08-19T09:20:43.096Z,101407.91
2022-08-19T09:23:11.887Z,101400.91
2022-08-19T09:25:41.139Z,101405.19
2022-08-19T09:28:22.422Z,101410.31
2022-08-19T09:30:54.026Z,101419.25
2022-08-19T09:33:21.319Z,101418.56
2022-08-19T09:35:53.088Z,101418.31
2022-08-19T09:38:22.213Z,101408.22
2022-08-19T09:40:51.024Z,101419.00
2022-08-19T09:43:33.338Z,101411.56
2022-08-19T09:46:02.487Z,101409.03
2022-08-19T09:48:29.894Z,101407.56
2022-08-19T09:51:06.611Z,101413.06
2022-08-19T09:53:33.604Z,101406.41
2022-08-19T09:56:01.375Z,101412.78
2022-08-19T09:58:34.393Z,101409.88
2022-08-19T10:01:03.357Z,101416.47
2022-08-19T10:03:32.517Z,101414.28
2022-08-19T10:06:02.260Z,101411.50
2022-08-19T10:08:32.160Z,101411.03
2022-08-19T10:11:00.149Z,101397.66
2022-08-19T10:13:47.677Z,101407.81
2022-08-19T10:16:18.852Z,101411.91
2022-08-19T10:18:49.741Z,101397.84
2022-08-19T10:21:24.241Z,101408.28
2022-08-19T10:23:58.493Z,101404.84
2022-08-19T10:26:32.402Z,101403.19
2022-08-19T10:28:59.711Z,101403.22
2022-08-19T10:32:01.830Z,101411.88
2022-08-19T10:34:27.103Z,101412.88
2022-08-19T10:36:56.303Z,101404.78
2022-08-19T10:39:23.831Z,101396.94
2022-08-19T10:41:57.895Z,101391.72
2022-08-19T10:44:25.384Z,101393.69
2022-08-19T10:46:59.952Z,101396.31
2022-08-19T10:49:28.018Z,101392.69
2022-08-19T10:52:18.969Z,101390.78
2022-08-19T10:55:08.313Z,101396.28
2022-08-19T10:58:03.815Z,101384.25
2022-08-19T11:00:24.641Z,101393.63
2022-08-19T11:02:52.122Z,101389.88
2022-08-19T11:05:20.075Z,101392.06
2022-08-19T11:07:47.156Z,101396.16
2022-08-19T11:10:20.899Z,101393.22
2022-08-19T11:12:49.359Z,101390.63
2022-08-19T11:15:16.695Z,101392.63
2022-08-19T11:17:44.816Z,101392.63
2022-08-19T11:20:14.354Z,101389.63
2022-08-19T11:22:42.508Z,101394.84
2022-08-19T11:25:11.763Z,101389.63
2022-08-19T11:27:44.197Z,101387.00
2022-08-19T11:30:14.219Z,101381.09
2022-08-19T11:32:48.505Z,101383.78
2022-08-19T11:35:17.251Z,101386.28
2022-08-19T11:37:44.423Z,101376.41
2022-08-19T11:40:12.248Z,101378.59
2022-08-19T11:42:58.104Z,101378.44
2022-08-19T11:45:27.640Z,101388.91
2022-08-19T11:47:54.861Z,101387.41
2022-08-19T11:50:22.199Z,101380.53
2022-08-19T11:52:50.812Z,101385.41
2022-08-19T11:55:17.849Z,101377.47
2022-08-19T11:57:44.751Z,101383.75
2022-08-19T12:00:14.261Z,101385.28
2022-08-19T12:02:41.609Z,101386.22
2022-08-19T12:05:12.238Z,101391.22
2022-08-19T12:07:40.855Z,101392.34
2022-08-19T12:10:08.353Z,101387.06
2022-08-19T12:12:35.442Z,101397.88
2022-08-19T12:15:03.223Z,101393.25
2022-08-19T12:17:31.818Z,101400.66
2022-08-19T12:19:58.714Z,101401.44
2022-08-19T12:22:25.889Z,101406.69
2022-08-19T12:24:54.218Z,101410.00
2022-08-19T12:27:40.138Z,101414.72
2022-08-19T12:30:10.930Z,101407.00
2022-08-19T12:32:38.318Z,101410.91
2022-08-19T12:35:06.503Z,101394.38
2022-08-19T12:37:33.953Z,101399.72
2022-08-19T12:40:00.875Z,101399.81
2022-08-19T12:42:27.950Z,101396.19
2022-08-19T12:44:55.030Z,101402.00
2022-08-19T12:47:22.227Z,101402.63
2022-08-19T12:49:54.093Z,101390.28
2022-08-19T12:52:24.642Z,101389.59
2022-08-19T12:54:54.504Z,101394.22
2022-08-19T12:57:32.631Z,101397.81
2022-08-19T13:00:12.721Z,101395.44
2022-08-19T13:02:41.876Z,101399.06
2022-08-19T13:05:12.567Z,101391.00
2022-08-19T13:07:40.791Z,101388.63
2022-08-19T13:10:10.189Z,101397.00
2022-08-19T13:12:37.296Z,101389.81
2022-08-19T13:15:10.656Z,101392.34
2022-08-19T13:17:39.215Z,101387.97
2022-08-19T13:20:08.920Z,101387.25
2022-08-19T13:22:38.844Z,101393.47
2022-08-19T13:25:07.433Z,101398.25
2022-08-19T13:27:34.985Z,101389.72
2022-08-19T13:30:21.128Z,101392.97
2022-08-19T13:33:06.116Z,101396.19
2022-08-19T13:35:33.615Z,101393.38
2022-08-19T13:38:05.900Z,101385.22
2022-08-19T13:40:39.952Z,101381.13
2022-08-19T13:43:17.818Z,101389.63
2022-08-19T13:45:50.786Z,101379.41
2022-08-19T13:48:18.437Z,101378.53
2022-08-19T13:50:47.730Z,101385.19
2022-08-19T13:53:16.066Z,101375.94
2022-08-19T13:55:44.752Z,101376.56
2022-08-19T13:58:12.970Z,101376.78
2022-08-19T14:00:44.005Z,101376.31
2022-08-19T14:03:11.078Z,101376.56
2022-08-19T14:05:39.536Z,101376.56
2022-08-19T14:08:06.744Z,101375.56
2022-08-19T14:10:34.303Z,101374.13
2022-08-19T14:13:04.366Z,101374.53
2022-08-19T14:15:31.805Z,101370.16
2022-08-19T14:17:59.374Z,101371.41
2022-08-19T14:20:26.509Z,101374.78
2022-08-19T14:22:54.979Z,101372.34
2022-08-19T14:25:25.235Z,101372.50
2022-08-19T14:27:52.253Z,101363.47
2022-08-19T14:30:23.813Z,101359.19
2022-08-19T14:32:50.693Z,101359.59
2022-08-19T14:35:17.778Z,101354.41
2022-08-19T14:37:46.548Z,101365.34
2022-08-19T14:40:17.848Z,101359.47
2022-08-19T14:42:45.265Z,101362.13
2022-08-19T14:45:12.956Z,101364.41
2022-08-19T14:47:40.986Z,101349.22
2022-08-19T14:50:18.311Z,101352.97
2022-08-19T14:52:49.606Z,101364.97
2022-08-19T14:55:18.285Z,101355.38
2022-08-19T14:57:46.145Z,101357.91
2022-08-19T15:00:14.416Z,101362.94
2022-08-19T15:02:42.779Z,101355.22
2022-08-19T15:05:10.045Z,101358.22
2022-08-19T15:07:38.141Z,101369.59
2022-08-19T15:10:07.942Z,101359.81
2022-08-19T15:12:36.183Z,101369.94
2022-08-19T15:15:03.629Z,101367.53
2022-08-19T15:17:43.449Z,101361.84
2022-08-19T15:20:16.063Z,101373.00
2022-08-19T15:22:43.474Z,101373.22
2022-08-19T15:25:12.677Z,101378.09
2022-08-19T15:27:41.830Z,101362.66
2022-08-19T15:30:10.877Z,101374.16
2022-08-19T15:32:39.251Z,101373.09
2022-08-19T15:35:08.124Z,101371.16
2022-08-19T15:37:37.039Z,101382.00
2022-08-19T15:40:07.577Z,101366.31
2022-08-19T15:42:37.629Z,101383.97
2022-08-19T15:45:08.307Z,101377.94
2022-08-19T15:47:35.859Z,101380.69
2022-08-19T15:50:32.276Z,101382.69
2022-08-19T15:53:04.247Z,101384.91
2022-08-19T15:55:34.823Z,101387.91
2022-08-19T15:58:20.556Z,101378.41
2022-08-19T16:01:16.289Z,101379.47
2022-08-19T16:04:03.799Z,101375.91
2022-08-19T16:06:31.886Z,101380.31
2022-08-19T16:09:02.015Z,101381.28
2022-08-19T16:11:32.031Z,101380.38
2022-08-19T16:14:00.182Z,101377.19
2022-08-19T16:16:33.743Z,101377.88
2022-08-19T16:19:04.021Z,101380.22
2022-08-19T16:21:33.322Z,101382.41
2022-08-19T16:24:03.416Z,101389.91
2022-08-19T16:26:31.652Z,101389.78
2022-08-19T16:28:59.814Z,101398.63
2022-08-19T16:31:27.683Z,101398.84
2022-08-19T16:33:55.332Z,101394.94
2022-08-19T16:36:24.314Z,101390.47
2022-08-19T16:38:52.886Z,101396.78
2022-08-19T16:41:21.017Z,101392.56
2022-08-19T16:43:52.675Z,101398.88
2022-08-19T16:46:22.635Z,101397.09
2022-08-19T16:48:50.259Z,101405.16
2022-08-19T16:51:18.288Z,101399.72
2022-08-19T16:53:45.717Z,101402.94
2022-08-19T16:56:13.117Z,101405.75
2022-08-19T16:58:40.950Z,101408.47
2022-08-19T17:01:10.330Z,101408.00
2022-08-19T17:03:39.976Z,101395.69
2022-08-19T17:06:20.564Z,101407.44
2022-08-19T17:08:50.001Z,101401.00
2022-08-19T17:11:19.139Z,101397.41
2022-08-19T17:13:47.769Z,101399.88
2022-08-19T17:16:25.135Z,101389.47
2022-08-19T17:18:54.326Z,101390.81
2022-08-19T17:21:24.051Z,101399.88
2022-08-19T17:23:51.060Z,101394.75
2022-08-19T17:26:18.818Z,101394.34
2022-08-19T17:28:51.423Z,101397.69
2022-08-19T17:31:21.566Z,101388.88
2022-08-19T17:33:49.117Z,101395.75
2022-08-19T17:36:28.290Z,101391.75
2022-08-19T17:38:57.406Z,101393.00
2022-08-19T17:41:26.865Z,101391.75
2022-08-19T17:43:55.036Z,101388.06
2022-08-19T17:46:22.030Z,101389.47
2022-08-19T17:48:52.680Z,101392.22
2022-08-19T17:51:52.395Z,101399.13
2022-08-19T17:54:19.906Z,101404.09
2022-08-19T17:56:47.473Z,101405.84
2022-08-19T17:59:15.653Z,101416.06
2022-08-19T18:01:53.429Z,101411.31
2022-08-19T18:04:26.139Z,101418.50
2022-08-19T18:06:55.154Z,101413.75
2022-08-19T18:09:25.113Z,101412.97
2022-08-19T18:11:54.488Z,101422.66
2022-08-19T18:14:32.790Z,101421.06
2022-08-19T18:17:12.791Z,101432.13
2022-08-19T18:19:43.333Z,101420.06
2022-08-19T18:22:29.363Z,101431.06
2022-08-19T18:24:57.631Z,101433.50
2022-08-19T18:27:25.867Z,101445.38
2022-08-19T18:29:59.233Z,101442.28
2022-08-19T18:32:34.544Z,101444.88
2022-08-19T18:35:04.423Z,101443.00
2022-08-19T18:37:31.335Z,101442.16
2022-08-19T18:40:17.268Z,101447.06
2022-08-19T18:43:04.475Z,101443.41
2022-08-19T18:45:50.037Z,101444.59
2022-08-19T18:48:35.609Z,101447.50
2022-08-19T18:51:02.988Z,101455.53
2022-08-19T18:53:33.157Z,101449.50
2022-08-19T18:56:00.207Z,101449.69
2022-08-19T18:58:35.119Z,101447.34
2022-08-19T19:01:21.318Z,101458.31
2022-08-19T19:03:53.959Z,101448.22
2022-08-19T19:06:24.716Z,101454.66
2022-08-19T19:08:53.314Z,101453.91
2022-08-19T19:11:24.251Z,101461.34
2022-08-19T19:13:52.016Z,101466.97
2022-08-19T19:16:23.742Z,101470.19
2022-08-19T19:18:52.407Z,101461.41
2022-08-19T19:21:23.104Z,101467.91
2022-08-19T19:23:50.969Z,101466.66
2022-08-19T19:26:18.089Z,101466.66
2022-08-19T19:28:47.954Z,101467.97
2022-08-19T19:31:18.086Z,101470.47
2022-08-19T19:33:45.822Z,101467.72
2022-08-19T19:36:13.028Z,101471.16
2022-08-19T19:38:47.706Z,101478.88
2022-08-19T19:41:19.933Z,101478.50
2022-08-19T19:43:46.956Z,101482.13
2022-08-19T19:46:15.572Z,101483.41
2022-08-19T19:48:42.839Z,101482.28
2022-08-19T19:51:10.432Z,101481.16
2022-08-19T19:53:37.514Z,101486.06
2022-08-19T19:56:05.279Z,101490.94
2022-08-19T19:58:35.680Z,101486.09
2022-08-19T20:01:08.066Z,101484.19
2022-08-19T20:03:36.631Z,101488.63
2022-08-19T20:06:03.483Z,101483.75
2022-08-19T20:08:49.263Z,101486.31
2022-08-19T20:11:29.095Z,101489.94
2022-08-19T20:13:56.118Z,101492.75
2022-08-19T20:16:25.391Z,101491.94
2022-08-19T20:18:52.652Z,101495.56
2022-08-19T20:21:26.103Z,101497.16
2022-08-19T20:24:08.871Z,101497.09
2022-08-19T20:26:37.086Z,101489.94
2022-08-19T20:29:11.244Z,101488.38
2022-08-19T20:31:57.265Z,101482.06
2022-08-19T20:34:24.918Z,101475.78
2022-08-19T20:36:52.118Z,101479.53
2022-08-19T20:39:19.006Z,101471.22
2022-08-19T20:41:45.781Z,101484.66
2022-08-19T20:44:12.853Z,101488.03
2022-08-19T20:46:39.985Z,101491.38
2022-08-19T20:49:08.191Z,101488.69
2022-08-19T20:51:35.567Z,101495.63
2022-08-19T20:54:02.522Z,101492.88
2022-08-19T20:56:29.685Z,101495.72
2022-08-19T20:59:00.194Z,101505.44
2022-08-19T21:01:27.166Z,101504.31
2022-08-19T21:03:54.075Z,101500.38
2022-08-19T21:06:22.112Z,101503.22
2022-08-19T21:08:50.073Z,101504.09
2022-08-19T21:11:20.629Z,101509.78
2022-08-19T21:13:48.414Z,101510.22
2022-08-19T21:16:15.286Z,101501.06
2022-08-19T21:18:42.045Z,101504.69
2022-08-19T21:21:09.612Z,101499.13
2022-08-19T21:23:36.421Z,101500.75
2022-08-19T21:26:03.587Z,101498.00
2022-08-19T21:28:36.123Z,101495.66
2022-08-19T21:31:05.627Z,101496.84
2022-08-19T21:33:32.940Z,101500.47
2022-08-19T21:36:00.258Z,101499.31
2022-08-19T21:38:27.543Z,101497.31
2022-08-19T21:40:55.042Z,101491.69
2022-08-19T21:43:22.683Z,101500.91
2022-08-19T21:45:51.023Z,101496.53
2022-08-19T21:48:18.214Z,101492.53
2022-08-19T21:50:48.392Z,101493.34
2022-08-19T21:53:19.655Z,101490.13
2022-08-19T21:55:53.349Z,101481.81
2022-08-19T21:58:28.233Z,101480.63
2022-08-19T22:01:05.572Z,101482.25
2022-08-19T22:03:33.574Z,101492.31
2022-08-19T22:06:00.332Z,101496.72
2022-08-19T22:08:27.354Z,101498.34
2022-08-19T22:10:54.339Z,101504.38
2022-08-19T22:13:21.230Z,101506.41
2022-08-19T22:15:51.834Z,101505.22
2022-08-19T22:18:19.199Z,101515.66
2022-08-19T22:20:47.825Z,101510.09
2022-08-19T22:23:14.793Z,101506.88
2022-08-19T22:25:45.441Z,101510.50
2022-08-19T22:28:18.802Z,101512.94
2022-08-19T22:30:47.316Z,101509.34
2022-08-19T22:33:19.720Z,101509.75
2022-08-19T22:35:47.477Z,101513.34
2022-08-19T22:38:15.346Z,101510.53
2022-08-19T22:40:47.278Z,101510.53
2022-08-19T22:43:20.685Z,101506.91
2022-08-19T22:45:49.292Z,101494.50
2022-08-19T22:48:19.533Z,101500.91
2022-08-19T22:51:07.482Z,101501.31
2022-08-19T22:53:36.880Z,101498.13
2022-08-19T22:56:06.124Z,101505.34
2022-08-19T22:58:33.613Z,101503.28
2022-08-19T23:01:01.644Z,101501.69
2022-08-19T23:03:28.907Z,101515.66
2022-08-19T23:05:56.364Z,101520.84
2022-08-19T23:08:24.189Z,101515.22
2022-08-19T23:10:51.377Z,101521.19
2022-08-19T23:13:18.474Z,101525.59
2022-08-19T23:15:46.891Z,101526.78
2022-08-19T23:18:14.547Z,101523.19
2022-08-19T23:20:43.290Z,101522.38
2022-08-19T23:23:13.217Z,101526.38
2022-08-19T23:25:40.543Z,101525.59
2022-08-19T23:28:26.003Z,101528.44
2022-08-19T23:30:53.650Z,101532.06
2022-08-19T23:33:26.661Z,101532.88
2022-08-19T23:36:16.784Z,101534.50
2022-08-19T23:38:46.499Z,101526.13
2022-08-19T23:41:14.767Z,101527.34
2022-08-19T23:43:42.984Z,101516.97
2022-08-19T23:46:12.939Z,101523.78
2022-08-19T23:48:39.982Z,101535.00
2022-08-19T23:51:09.984Z,101525.03
2022-08-19T23:53:38.602Z,101526.28
2022-08-19T23:56:07.446Z,101531.47
2022-08-19T23:58:36.128Z,101535.88
